Supai, AZ

5:57 AM MST on July 26, 2016 (GMT -0700)
APRSWXNET | | Change Station

Elev 6830 ft 36.05 °N, 112.13 °W | Updated 34 minutes ago

Partly Cloudy
Partly Cloudy
63 °F
Feels Like 63 °F
N
0
Wind Variable Wind from SSW
Gusts 0.0 mph

Today
High -- | Low -- °F
--% Chance of Precip.
Yesterday
High -- | Low -- °F
Precip. -- in
Pressure 29.99 in
Visibility 10.0 miles
Clouds Few 11000 ft
Dew Point 45 °F
Humidity 51%
Rainfall in
Snow Depth Not available.
5:33 AM 7:39 PM
Waning Gibbous, 55% visible
METAR KGCN 261254Z 06003KT 10SM FEW110 18/08 A3032 RMK AO2 SLP156 T01780078
Pressure 29.99 in
Visibility 10.0 miles
Clouds Few 11000 ft
Dew Point 45 °F
Humidity 51%
Rainfall in
Snow Depth Not available.
5:33 AM 7:39 PM
Waning Gibbous, 55% visible
METAR KGCN 261254Z 06003KT 10SM FEW110 18/08 A3032 RMK AO2 SLP156 T01780078

10-Day Weather Forecast

Almanac

Astronomy

Jul. 26, 2016 Rise Set
Actual Time
Civil Twilight
Nautical Twilight
Astronomical Twilight
Moon
Length of Visible Light
Length of Day
Tomorrow will be .
, % of the Moon is Illuminated

Today's Extremes

State Highs State Lows

Community

WunderPhotos

Upload Photos

1,927,581 photos uploaded!

WunderBlog® & News

Nearby

Air Quality

  Air Quality AQ Index Pollutant
Not available.

Snow Depth

Station Depth Elevation

Earthquake Activity

City Distance Mag. Time & Date
Minimum magnitude displayed is 2.5.

Coastal Water Temperatures

Place Temperature

Stations

Nearby Weather Stations

Station Location Temp. Windchill Dew Point Humidity Wind Precip. Elev Updated Type
                   

Watches & Warnings

There are currently no watches in effect.